Time;durP1;ratioP1;P1;durP2;ratioP2;P2;SDS_P1;SDS_P2;PMS_P1;PMS_P2;Temp;Humidity;BMP_temperature;BMP_pressure;BME280_temperature;BME280_humidity;BME280_pressure;Samples;Min_cycle;Max_cycle;Signal;HPM_P1;HPM_P2
2021/04/24 00:00:08;;;;;;;6.83;3.40;;;;;;;2.08;69.29;99517.62;1807933;79;21483;-64
2021/04/24 00:02:41;;;;;;;;;;;;;;;2.04;69.03;99521.11;1810665;79;21161;-64
2021/04/24 00:05:26;;;;;;;5.67;2.80;;;;;;;1.98;68.92;99512.14;1807966;79;20114;-64
2021/04/24 00:07:59;;;;;;;7.67;3.17;;;;;;;1.91;69.32;99508.30;1807983;79;21118;-64
2021/04/24 00:10:28;;;;;;;7.62;3.12;;;;;;;1.85;69.74;99513.93;1808015;79;21200;-63
2021/04/24 00:12:59;;;;;;;6.85;3.02;;;;;;;1.80;70.21;99515.25;1807951;79;20987;-64
2021/04/24 00:15:27;;;;;;;8.15;2.83;;;;;;;1.78;70.28;99520.92;1807949;78;20976;-64
2021/04/24 00:17:55;;;;;;;10.98;3.02;;;;;;;1.74;70.57;99518.45;1807972;79;21486;-64
2021/04/24 00:20:24;;;;;;;5.80;2.67;;;;;;;1.68;70.91;99516.80;1807988;79;21130;-63
2021/04/24 00:22:52;;;;;;;4.40;2.92;;;;;;;1.62;71.19;99519.19;1807941;79;21189;-63
2021/04/24 00:25:20;;;;;;;6.12;3.05;;;;;;;1.58;71.50;99520.78;1807914;79;20893;-65
2021/04/24 00:27:48;;;;;;;5.62;2.95;;;;;;;1.53;72.11;99522.08;1807923;79;20972;-65
2021/04/24 00:30:17;;;;;;;7.03;3.10;;;;;;;1.47;72.32;99527.98;1808007;79;21058;-63
2021/04/24 00:32:45;;;;;;;4.75;2.75;;;;;;;1.43;72.39;99524.16;1778772;79;20980;-65
2021/04/24 00:35:14;;;;;;;6.55;3.10;;;;;;;1.38;72.54;99529.52;1808066;79;21437;-65
2021/04/24 00:37:41;;;;;;;7.03;2.92;;;;;;;1.33;72.68;99525.41;1807916;79;20956;-63
2021/04/24 00:40:10;;;;;;;8.98;3.25;;;;;;;1.31;72.77;99529.72;1807940;79;20960;-62
2021/04/24 00:42:39;;;;;;;10.03;3.35;;;;;;;1.33;72.92;99528.93;1807746;79;21190;-64
2021/04/24 00:45:10;;;;;;;7.90;3.17;;;;;;;1.37;72.98;99530.59;1808010;79;20936;-63
2021/04/24 00:47:38;;;;;;;5.80;3.17;;;;;;;1.41;72.78;99525.48;1807954;79;21359;-63
2021/04/24 00:50:08;;;;;;;6.15;2.70;;;;;;;1.44;72.58;99525.79;1807888;79;20992;-63
2021/04/24 00:52:36;;;;;;;7.65;2.95;;;;;;;1.46;72.36;99532.30;1807950;79;21027;-63
2021/04/24 00:55:05;;;;;;;4.80;2.52;;;;;;;1.47;72.19;99533.39;1807855;78;21019;-63
2021/04/24 00:57:33;;;;;;;7.20;3.15;;;;;;;1.48;72.01;99532.86;1807962;78;21043;-63
2021/04/24 01:00:00;;;;;;;9.60;3.98;;;;;;;1.47;71.99;99534.75;1807990;79;23592;-63
2021/04/24 01:02:29;;;;;;;7.40;3.70;;;;;;;1.46;72.01;99535.00;1807898;79;21066;-63
2021/04/24 01:04:56;;;;;;;6.95;3.37;;;;;;;1.44;72.14;99535.80;1807941;79;20933;-64
2021/04/24 01:07:24;;;;;;;7.37;3.70;;;;;;;1.43;72.27;99524.16;1807870;78;21189;-66
2021/04/24 01:09:52;;;;;;;4.42;2.70;;;;;;;1.46;72.36;99526.35;1807940;79;21047;-64
2021/04/24 01:12:20;;;;;;;7.90;3.62;;;;;;;1.47;72.51;99528.52;1807974;78;21388;-65
2021/04/24 01:14:47;;;;;;;8.38;3.87;;;;;;;1.48;72.60;99526.09;1807851;78;21561;-66
2021/04/24 01:17:15;;;;;;;8.33;3.98;;;;;;;1.51;72.74;99526.40;1808003;78;20980;-65
2021/04/24 01:19:43;;;;;;;9.98;3.35;;;;;;;1.56;72.88;99526.45;1807905;79;21047;-63
2021/04/24 01:22:11;;;;;;;10.32;4.37;;;;;;;1.62;72.91;99521.36;1803388;78;21044;-63
2021/04/24 01:24:39;;;;;;;7.62;3.50;;;;;;;1.66;72.94;99524.36;1793083;79;21192;-64
2021/04/24 01:27:08;;;;;;;7.55;3.60;;;;;;;1.70;72.87;99522.77;1807847;78;20987;-64
2021/04/24 01:29:37;;;;;;;6.25;3.80;;;;;;;1.72;72.72;99523.34;1807891;79;21106;-63
2021/04/24 01:32:05;;;;;;;9.70;4.72;;;;;;;1.74;72.76;99522.51;1806725;78;20956;-65
2021/04/24 01:34:34;;;;;;;9.83;4.35;;;;;;;1.75;72.64;99516.56;1792808;79;21189;-64
2021/04/24 01:37:02;;;;;;;9.78;4.15;;;;;;;1.73;72.61;99519.55;1774113;80;21311;-64
2021/04/24 01:39:30;;;;;;;7.20;3.85;;;;;;;1.72;72.64;99527.93;1774353;80;20956;-65
2021/04/24 01:41:59;;;;;;;7.55;3.75;;;;;;;1.73;72.68;99535.80;1774400;80;20929;-66
2021/04/24 01:44:26;;;;;;;9.05;4.58;;;;;;;1.75;72.79;99524.14;1769422;79;21019;-66
2021/04/24 01:46:54;;;;;;;9.75;3.90;;;;;;;1.79;72.87;99523.09;1766760;81;21168;-66
2021/04/24 01:49:22;;;;;;;8.45;3.75;;;;;;;1.82;73.11;99516.62;1766704;81;21379;-65
2021/04/24 01:51:50;;;;;;;8.98;3.98;;;;;;;1.84;73.22;99510.95;1766720;81;21086;-66
2021/04/24 01:54:18;;;;;;;8.08;4.03;;;;;;;1.85;73.07;99512.04;1766734;81;21150;-65
2021/04/24 01:56:54;;;;;;;7.47;3.77;;;;;;;1.88;73.11;99514.23;1782008;79;21106;-66
2021/04/24 01:59:25;;;;;;;8.38;3.77;;;;;;;1.84;72.98;99511.77;1768444;79;21050;-65
2021/04/24 02:01:55;;;;;;;8.63;4.17;;;;;;;1.80;73.10;99521.47;1766458;80;21338;-65
2021/04/24 02:04:26;;;;;;;6.95;3.50;;;;;;;1.77;73.17;99519.28;1766845;81;21071;-64
2021/04/24 02:06:54;;;;;;;8.05;3.85;;;;;;;1.73;73.33;99521.45;1766792;81;21046;-65
2021/04/24 02:09:22;;;;;;;9.78;3.90;;;;;;;1.67;73.55;99513.82;1766740;80;20928;-64
2021/04/24 02:12:11;;;;;;;8.03;4.22;;;;;;;1.64;73.87;99522.45;1782603;79;21484;-65
2021/04/24 02:14:47;;;;;;;6.92;3.87;;;;;;;1.61;74.22;99522.97;1768372;81;21363;-65
2021/04/24 02:17:18;;;;;;;9.85;4.75;;;;;;;1.60;74.59;99514.57;1768286;81;21568;-66
2021/04/24 02:19:47;;;;;;;9.60;3.72;;;;;;;1.59;75.37;99519.17;1768480;81;21592;-65
2021/04/24 02:22:15;;;;;;;10.55;3.92;;;;;;;1.62;75.59;99529.48;1768316;81;21120;-65
2021/04/24 02:24:49;;;;;;;8.53;3.90;;;;;;;1.62;75.71;99524.06;1768404;81;21133;-65
2021/04/24 02:27:16;;;;;;;10.85;4.55;;;;;;;1.60;75.79;99520.80;1768162;79;22103;-64
2021/04/24 02:29:45;;;;;;;10.20;4.58;;;;;;;1.60;75.96;99524.05;1768299;80;21066;-64
2021/04/24 02:32:13;;;;;;;10.00;4.87;;;;;;;1.58;76.22;99518.89;1768358;79;20923;-64
2021/04/24 02:34:45;;;;;;;9.60;3.67;;;;;;;1.57;76.41;99517.79;1768450;79;21072;-62
2021/04/24 02:37:14;;;;;;;9.33;3.83;;;;;;;1.57;76.62;99517.79;1768610;81;21217;-65
2021/04/24 02:39:43;;;;;;;7.00;3.72;;;;;;;1.55;76.82;99526.70;1768384;81;21369;-65
2021/04/24 02:42:14;;;;;;;8.45;3.83;;;;;;;1.56;76.95;99529.69;1768315;80;20967;-64
2021/04/24 02:44:42;;;;;;;7.45;3.95;;;;;;;1.56;76.87;99535.09;1773193;79;21439;-65
2021/04/24 02:47:10;;;;;;;7.67;3.95;;;;;;;1.53;77.15;99526.14;1775950;80;21011;-65
2021/04/24 02:49:38;;;;;;;10.08;4.00;;;;;;;1.52;77.25;99526.68;1776002;80;20999;-64
2021/04/24 02:52:06;;;;;;;12.40;4.00;;;;;;;1.52;77.51;99526.68;1776139;80;22226;-65
2021/04/24 02:54:34;;;;;;;8.73;3.85;;;;;;;1.53;77.68;99528.84;1775938;80;21034;-64
2021/04/24 02:57:03;;;;;;;6.95;3.33;;;;;;;1.53;77.68;99526.95;1776014;80;20920;-64
2021/04/24 02:59:30;;;;;;;7.15;3.72;;;;;;;1.53;77.86;99528.84;1776015;80;20921;-65
2021/04/24 03:01:58;;;;;;;10.60;4.30;;;;;;;1.54;77.91;99528.59;1775950;80;21083;-65
2021/04/24 03:04:26;;;;;;;5.70;3.02;;;;;;;1.54;78.19;99532.65;1776207;80;22103;-65
2021/04/24 03:06:54;;;;;;;10.25;3.83;;;;;;;1.57;78.38;99534.84;1776126;80;21062;-65
2021/04/24 03:09:22;;;;;;;5.12;3.22;;;;;;;1.60;78.42;99541.09;1776167;80;21050;-65
2021/04/24 03:11:50;;;;;;;6.97;3.72;;;;;;;1.63;78.44;99544.64;1776118;80;20940;-65
2021/04/24 03:14:18;;;;;;;5.45;3.40;;;;;;;1.65;78.50;99531.66;1776187;80;20982;-65
2021/04/24 03:16:46;;;;;;;8.25;3.70;;;;;;;1.69;78.65;99530.62;1776150;80;21195;-65
2021/04/24 03:19:14;;;;;;;7.37;3.87;;;;;;;1.74;78.78;99533.88;1776095;80;21003;-65
2021/04/24 03:21:42;;;;;;;8.48;3.77;;;;;;;1.78;78.75;99537.69;1776165;80;20935;-65
2021/04/24 03:24:10;;;;;;;12.95;3.80;;;;;;;1.82;78.83;99540.98;1775896;80;21177;-65
2021/04/24 03:26:37;;;;;;;8.20;3.85;;;;;;;1.86;78.93;99544.80;1776170;80;20991;-64
2021/04/24 03:29:05;;;;;;;7.50;3.87;;;;;;;1.89;78.95;99546.18;1776140;80;21207;-65
2021/04/24 03:31:33;;;;;;;13.35;3.75;;;;;;;1.94;79.06;99545.68;1776091;80;20939;-64
2021/04/24 03:34:00;;;;;;;7.75;3.75;;;;;;;1.97;79.00;99541.64;1792201;78;20928;-64
2021/04/24 03:36:28;;;;;;;10.60;3.40;;;;;;;2.00;79.08;99551.95;1774492;80;20963;-64
2021/04/24 03:38:56;;;;;;;9.83;3.40;;;;;;;2.01;79.34;99552.77;1774611;80;21107;-65
2021/04/24 03:41:24;;;;;;;6.22;3.62;;;;;;;2.02;79.48;99556.56;1803014;79;21198;-65
2021/04/24 03:43:53;;;;;;;7.87;3.75;;;;;;;2.03;79.57;99555.50;1785702;79;21328;-65
2021/04/24 03:46:20;;;;;;;8.28;3.80;;;;;;;2.05;79.89;99563.36;1774512;80;20936;-64
2021/04/24 03:48:48;;;;;;;5.53;3.20;;;;;;;2.06;79.90;99566.34;1774539;80;21066;-65
2021/04/24 03:51:16;;;;;;;6.67;3.62;;;;;;;2.06;80.36;99569.87;1794839;79;21122;-65
2021/04/24 03:53:44;;;;;;;5.75;3.65;;;;;;;2.05;80.46;99570.95;1807999;79;21202;-65
2021/04/24 03:56:13;;;;;;;8.75;3.40;;;;;;;2.04;80.66;99567.14;1807900;78;20893;-64
2021/04/24 03:58:40;;;;;;;7.22;3.67;;;;;;;2.04;80.85;99568.50;1807983;79;20940;-65
2021/04/24 04:01:07;;;;;;;8.35;3.30;;;;;;;2.05;80.92;99552.53;1791734;79;21027;-66
2021/04/24 04:03:35;;;;;;;8.58;3.80;;;;;;;2.09;80.97;99553.11;1774464;80;21140;-66
2021/04/24 04:06:03;;;;;;;9.53;4.10;;;;;;;2.12;80.94;99558.00;1774595;80;22597;-65
2021/04/24 04:08:31;;;;;;;9.83;4.08;;;;;;;2.17;81.17;99566.70;1774436;80;21079;-66
2021/04/24 04:10:59;;;;;;;9.73;4.12;;;;;;;2.20;81.12;99564.29;1774393;80;20992;-67
2021/04/24 04:13:27;;;;;;;9.68;3.98;;;;;;;2.25;81.31;99571.63;1746656;80;21146;-67
2021/04/24 04:15:54;;;;;;;7.97;3.90;;;;;;;2.28;81.29;99576.53;1774513;80;21016;-65
2021/04/24 04:18:22;;;;;;;13.65;5.87;;;;;;;2.30;81.26;99582.50;1774519;80;22053;-65
2021/04/24 04:20:52;;;;;;;21.40;8.45;;;;;;;2.30;81.30;99584.67;1774440;80;20960;-65
2021/04/24 04:23:24;;;;;;;13.17;5.03;;;;;;;2.33;81.33;99592.25;1774650;80;21067;-65
2021/04/24 04:25:52;;;;;;;10.53;4.75;;;;;;;2.37;81.30;99593.09;1774471;80;20944;-65
2021/04/24 04:28:20;;;;;;;8.53;4.25;;;;;;;2.39;81.39;99597.16;1774468;80;20956;-65
2021/04/24 04:30:50;;;;;;;8.25;3.83;;;;;;;2.45;81.27;99604.79;1774485;80;21322;-65
2021/04/24 04:33:18;;;;;;;8.23;3.50;;;;;;;2.50;81.30;99603.47;1774453;80;20960;-65
2021/04/24 04:35:46;;;;;;;9.73;4.08;;;;;;;2.56;81.25;99613.27;1722413;80;21565;-65
2021/04/24 04:38:14;;;;;;;8.85;4.03;;;;;;;2.59;81.17;99603.26;1774425;80;20960;-65
2021/04/24 04:40:43;;;;;;;8.58;4.10;;;;;;;2.64;81.23;99604.64;1774496;80;21511;-65
2021/04/24 04:43:11;;;;;;;7.45;3.80;;;;;;;2.69;81.10;99597.90;1774449;80;22071;-66
2021/04/24 04:45:39;;;;;;;7.80;4.22;;;;;;;2.71;80.83;99603.05;1778380;80;20948;-65
2021/04/24 04:48:07;;;;;;;9.70;3.67;;;;;;;2.74;81.00;99606.06;1779943;80;21597;-65
2021/04/24 04:50:37;;;;;;;9.73;3.67;;;;;;;2.80;81.10;99614.50;1779942;80;21111;-63
2021/04/24 04:53:05;;;;;;;11.15;5.15;;;;;;;2.86;80.65;99607.20;1780055;80;21114;-64
2021/04/24 04:55:33;;;;;;;14.75;4.87;;;;;;;2.89;80.87;99606.65;1779927;80;21141;-64
2021/04/24 04:58:00;;;;;;;11.95;5.22;;;;;;;2.93;81.03;99607.22;1779864;80;20961;-64
2021/04/24 05:00:28;;;;;;;13.75;6.00;;;;;;;3.02;81.23;99603.45;1779914;80;21112;-64
2021/04/24 05:02:56;;;;;;;11.10;5.60;;;;;;;3.11;80.15;99608.66;1753858;80;21146;-64
2021/04/24 05:05:24;;;;;;;9.58;4.72;;;;;;;3.18;79.78;99601.09;1779930;80;21000;-65
2021/04/24 05:07:52;;;;;;;8.05;4.12;;;;;;;3.31;79.78;99611.44;1779917;80;22049;-66
2021/04/24 05:10:24;;;;;;;7.33;4.53;;;;;;;3.48;79.10;99610.38;1779873;80;20913;-65
2021/04/24 05:12:53;;;;;;;5.28;3.33;;;;;;;3.59;78.53;99615.56;1780008;80;21491;-65
2021/04/24 05:15:21;;;;;;;6.10;3.58;;;;;;;3.66;77.32;99622.09;1779141;80;21054;-67
2021/04/24 05:17:50;;;;;;;9.33;3.95;;;;;;;3.67;77.31;99612.87;1779940;80;21498;-63
2021/04/24 05:20:18;;;;;;;7.83;4.08;;;;;;;3.67;76.70;99610.16;1779954;80;22330;-63
2021/04/24 05:22:46;;;;;;;6.42;3.77;;;;;;;3.66;75.95;99611.23;1779723;80;21034;-66
2021/04/24 05:25:15;;;;;;;6.85;3.60;;;;;;;3.68;75.80;99602.83;1779701;80;20952;-67
2021/04/24 05:27:45;;;;;;;7.40;3.05;;;;;;;3.69;75.56;99602.55;1753849;80;21486;-66
2021/04/24 05:30:14;;;;;;;4.62;2.87;;;;;;;3.72;75.22;99605.27;1797733;77;21098;-67
2021/04/24 05:32:42;;;;;;;7.80;2.72;;;;;;;3.79;74.64;99601.22;1785051;79;21320;-66
2021/04/24 05:35:13;;;;;;;7.50;2.92;;;;;;;3.85;73.44;99602.85;1799179;77;21060;-65
2021/04/24 05:37:41;;;;;;;5.75;2.85;;;;;;;3.86;73.39;99606.38;1811837;78;21050;-70
2021/04/24 05:40:09;;;;;;;6.42;2.65;;;;;;;3.85;73.25;99609.64;1769588;79;21058;-65
2021/04/24 05:42:37;;;;;;;5.40;2.80;;;;;;;3.89;72.12;99616.70;1776080;79;21118;-65
2021/04/24 05:47:50;;;;;;;4.80;2.77;;;;;;;3.98;71.90;99619.16;1873670;76;22440;-64
2021/04/24 05:50:20;;;;;;;5.15;2.90;;;;;;;3.99;72.26;99622.15;1838748;78;20928;-66
2021/04/24 05:52:50;;;;;;;9.68;2.67;;;;;;;4.07;71.02;99628.92;1809319;78;21189;-65
2021/04/24 05:55:19;;;;;;;6.08;2.67;;;;;;;4.11;69.99;99625.39;1808610;79;20983;-64
2021/04/24 05:57:47;;;;;;;5.70;2.80;;;;;;;4.16;69.78;99634.91;1808616;78;21486;-65
2021/04/24 06:00:18;;;;;;;5.85;3.22;;;;;;;4.22;69.23;99633.81;1808633;78;20944;-64
2021/04/24 06:02:47;;;;;;;9.55;3.85;;;;;;;4.34;68.92;99627.30;1808673;79;20932;-67
2021/04/24 06:05:15;;;;;;;3.67;2.25;;;;;;;4.42;68.63;99631.64;1808629;79;21131;-64
2021/04/24 06:07:43;;;;;;;5.97;2.52;;;;;;;4.52;69.04;99634.34;1808505;79;21981;-64
2021/04/24 06:10:14;;;;;;;5.67;2.95;;;;;;;4.63;68.26;99638.66;1808645;79;20979;-63
2021/04/24 06:12:41;;;;;;;4.50;2.75;;;;;;;4.67;67.47;99632.67;1808596;78;21007;-65
2021/04/24 06:15:10;;;;;;;6.72;3.45;;;;;;;4.67;68.67;99636.20;1808589;78;21003;-64
2021/04/24 06:17:38;;;;;;;5.53;2.47;;;;;;;4.86;69.46;99629.09;1808443;79;21419;-64
2021/04/24 06:20:09;;;;;;;10.05;3.17;;;;;;;5.09;66.31;99626.86;1807519;78;20996;-65
2021/04/24 06:22:38;;;;;;;6.90;3.05;;;;;;;5.12;65.00;99624.94;1807070;79;21209;-65
2021/04/24 06:25:09;;;;;;;8.93;3.35;;;;;;;4.89;64.71;99633.17;1807114;79;21195;-66
2021/04/24 06:27:37;;;;;;;5.03;2.62;;;;;;;4.89;64.71;99633.17;1807415;78;21158;-64
2021/04/24 06:30:07;;;;;;;4.53;2.60;;;;;;;4.65;65.12;99645.99;1807528;79;21581;-65
2021/04/24 06:32:35;;;;;;;10.10;2.80;;;;;;;4.65;65.12;99645.99;1807556;78;20972;-64
2021/04/24 06:35:04;;;;;;;3.58;2.33;;;;;;;4.60;65.52;99637.88;1808269;79;21114;-65
2021/04/24 06:37:34;;;;;;;5.10;2.25;;;;;;;4.58;65.36;99641.41;1808584;79;20952;-63
2021/04/24 06:40:01;;;;;;;5.72;2.15;;;;;;;4.60;64.58;99638.42;1808817;76;20999;-66
2021/04/24 06:42:29;;;;;;;3.72;2.17;;;;;;;4.67;60.95;99637.56;1824896;76;21146;-64
2021/04/24 06:44:56;;;;;;;3.20;1.95;;;;;;;4.81;59.74;99631.02;1842102;76;20915;-64
2021/04/24 06:47:24;;;;;;;5.37;2.05;;;;;;;5.00;61.79;99625.80;1737529;81;21074;-64
2021/04/24 06:49:52;;;;;;;5.15;1.57;;;;;;;5.25;59.98;99629.20;1780879;80;21587;-66
2021/04/24 06:52:20;;;;;;;3.85;1.80;;;;;;;5.50;56.17;99616.58;1717561;79;31484;-66
2021/04/24 06:54:47;;;;;;;10.08;1.85;;;;;;;5.66;54.00;99616.76;1690035;83;21651;-64
2021/04/24 06:57:15;;;;;;;7.28;1.77;;;;;;;5.74;51.60;99629.79;1690148;83;21075;-67
2021/04/24 06:59:44;;;;;;;4.17;1.85;;;;;;;5.74;51.60;99629.79;1696279;84;21001;-64
2021/04/24 07:02:11;;;;;;;4.85;2.00;;;;;;;5.50;50.50;99641.89;1689924;84;21212;-64
2021/04/24 07:04:40;;;;;;;4.20;1.40;;;;;;;5.50;50.50;99641.89;1683473;83;21201;-64
2021/04/24 07:07:09;;;;;;;10.90;2.15;;;;;;;5.48;49.38;99629.66;1713388;83;21392;-65
2021/04/24 07:09:37;;;;;;;3.92;1.35;;;;;;;5.64;49.54;99623.03;1696234;84;21164;-64
2021/04/24 07:12:06;;;;;;;5.30;1.65;;;;;;;5.91;47.62;99634.31;1696290;83;21029;-65
2021/04/24 07:14:34;;;;;;;2.72;1.45;;;;;;;5.91;47.62;99634.31;1696315;84;21179;-66
2021/04/24 07:17:01;;;;;;;2.70;1.10;;;;;;;6.10;48.73;99628.19;1696331;84;21168;-64
2021/04/24 07:19:29;;;;;;;2.40;0.95;;;;;;;6.24;46.32;99630.53;1696271;83;21219;-65
2021/04/24 07:21:56;;;;;;;6.22;1.57;;;;;;;6.21;44.71;99646.91;1696487;84;22024;-65
2021/04/24 07:24:25;;;;;;;4.62;1.50;;;;;;;5.95;43.81;99620.94;1696568;84;21005;-65
2021/04/24 07:26:52;;;;;;;3.47;1.10;;;;;;;5.95;43.81;99620.94;1696506;84;21184;-65
2021/04/24 07:29:20;;;;;;;2.40;1.05;;;;;;;6.04;43.29;99633.41;1696475;84;21151;-65
2021/04/24 07:31:48;;;;;;;6.90;2.33;;;;;;;6.16;44.25;99646.95;1695611;83;21230;-65
2021/04/24 07:34:18;;;;;;;7.22;3.40;;;;;;;6.27;44.88;99644.96;1696381;83;21076;-66
2021/04/24 07:36:47;;;;;;;9.55;2.25;;;;;;;6.38;44.26;99641.02;1696614;84;21197;-65
2021/04/24 07:39:15;;;;;;;4.67;1.20;;;;;;;6.45;43.94;99627.87;1696958;84;21147;-65
2021/04/24 07:41:42;;;;;;;2.65;1.20;;;;;;;6.51;43.06;99634.09;1696643;83;21170;-65
2021/04/24 07:44:10;;;;;;;1.57;0.70;;;;;;;6.69;42.35;99645.66;1694515;83;21355;-66
2021/04/24 07:46:37;;;;;;;6.47;0.98;;;;;;;7.28;39.64;99639.81;1688439;82;21170;-65
2021/04/24 07:49:06;;;;;;;10.85;1.30;;;;;;;7.28;39.64;99639.81;1706683;84;21199;-64
2021/04/24 07:51:33;;;;;;;6.08;1.65;;;;;;;7.56;38.21;99648.17;1707071;84;21160;-66
2021/04/24 07:54:01;;;;;;;3.40;1.50;;;;;;;7.50;38.87;99659.75;1710734;82;21147;-65
2021/04/24 07:56:31;;;;;;;1.55;1.00;;;;;;;7.24;40.34;99659.23;1678648;85;21460;-65
2021/04/24 07:58:58;;;;;;;3.85;1.45;;;;;;;6.88;39.73;99642.47;1678583;85;21556;-65
2021/04/24 08:01:27;;;;;;;3.20;1.17;;;;;;;6.57;40.94;99670.59;1721627;82;21125;-65
2021/04/24 08:03:55;;;;;;;5.25;0.98;;;;;;;6.24;40.68;99668.16;1707214;84;21169;-66
2021/04/24 08:06:22;;;;;;;2.55;0.95;;;;;;;5.99;40.20;99674.32;1707201;84;22376;-65
2021/04/24 08:08:50;;;;;;;5.40;1.27;;;;;;;6.13;41.27;99663.87;1707454;84;21280;-65
2021/04/24 08:11:18;;;;;;;3.83;0.82;;;;;;;6.64;41.41;99649.80;1707179;83;21188;-65
2021/04/24 08:13:45;;;;;;;3.40;1.00;;;;;;;6.97;38.75;99671.27;1707350;84;20991;-67
2021/04/24 08:16:14;;;;;;;8.90;1.32;;;;;;;6.90;39.37;99676.29;1707300;83;21054;-65
2021/04/24 08:18:41;;;;;;;2.75;1.00;;;;;;;6.60;39.11;99676.83;1708308;82;21808;-65
2021/04/24 08:21:09;;;;;;;9.38;1.37;;;;;;;6.23;37.90;99672.52;1732314;81;21193;-65
2021/04/24 08:23:37;;;;;;;1.87;1.02;;;;;;;5.91;39.31;99668.38;1732230;82;21147;-65
2021/04/24 08:26:05;;;;;;;9.95;1.27;;;;;;;5.75;40.42;99673.64;1732289;81;20937;-65
2021/04/24 08:28:32;;;;;;;2.87;1.35;;;;;;;6.01;41.63;99673.49;1732258;82;21029;-64
2021/04/24 08:31:00;;;;;;;5.45;1.10;;;;;;;6.63;41.47;99664.54;1677179;85;21683;-66
2021/04/24 08:33:27;;;;;;;4.87;1.00;;;;;;;7.07;39.29;99662.98;1677204;85;22966;-64
2021/04/24 08:35:55;;;;;;;2.75;0.75;;;;;;;7.15;39.06;99671.91;1677165;85;20980;-65
2021/04/24 08:38:23;;;;;;;2.20;0.98;;;;;;;6.86;37.64;99648.77;1677206;84;21601;-65
2021/04/24 08:40:51;;;;;;;2.60;0.68;;;;;;;6.83;39.26;99675.81;1677156;85;21149;-64
2021/04/24 08:43:19;;;;;;;1.95;0.70;;;;;;;7.22;37.23;99666.09;1677275;85;21173;-65
2021/04/24 08:45:47;;;;;;;7.22;1.27;;;;;;;7.70;37.62;99667.39;1677142;84;21590;-65
2021/04/24 08:48:14;;;;;;;4.42;0.90;;;;;;;8.27;36.04;99658.06;1671992;85;21213;-64
2021/04/24 08:50:42;;;;;;;3.90;1.87;;;;;;;8.65;36.00;99647.89;1684837;84;21086;-65
2021/04/24 08:53:09;;;;;;;14.00;1.12;;;;;;;8.91;35.48;99663.28;1694427;84;21628;-64
2021/04/24 08:55:38;;;;;;;5.92;1.35;;;;;;;8.99;31.95;99648.09;1694540;84;21124;-65
2021/04/24 08:58:06;;;;;;;2.15;0.72;;;;;;;8.51;32.50;99654.70;1694302;84;21275;-64
2021/04/24 09:00:37;;;;;;;1.85;0.95;;;;;;;8.13;33.30;99655.82;1694445;84;21262;-63
2021/04/24 09:03:07;;;;;;;2.22;0.98;;;;;;;8.18;35.65;99657.11;1694652;84;21059;-64
2021/04/24 09:05:35;;;;;;;2.75;0.75;;;;;;;8.50;35.35;99662.64;1694335;84;21082;-64
2021/04/24 09:08:08;;;;;;;1.75;0.60;;;;;;;8.54;34.83;99656.02;1694550;84;21143;-63
2021/04/24 09:10:42;;;;;;;2.27;0.78;;;;;;;8.33;34.46;99662.38;1694582;84;21375;-64
2021/04/24 09:13:22;;;;;;;14.03;1.85;;;;;;;8.13;34.94;99664.84;1694510;84;21041;-66
2021/04/24 09:15:51;;;;;;;4.12;0.78;;;;;;;7.93;35.75;99663.80;1694469;84;21041;-64
2021/04/24 09:18:19;;;;;;;2.77;1.07;;;;;;;8.04;35.66;99673.48;1694471;84;21175;-64
2021/04/24 09:20:59;;;;;;;2.02;1.00;;;;;;;8.46;35.96;99660.25;1694356;84;21119;-65
2021/04/24 09:23:35;;;;;;;1.00;0.62;;;;;;;9.10;33.35;99668.69;1694542;84;22125;-64
2021/04/24 09:26:06;;;;;;;2.90;0.75;;;;;;;9.58;32.04;99641.67;1694606;84;21183;-64
2021/04/24 09:28:37;;;;;;;2.15;0.68;;;;;;;9.58;30.39;99630.70;1694303;84;21111;-64
2021/04/24 09:31:13;;;;;;;1.80;0.50;;;;;;;9.17;30.17;99646.63;1694692;84;21507;-64
2021/04/24 09:33:41;;;;;;;4.22;1.32;;;;;;;8.74;31.81;99653.46;1722613;83;21080;-64
2021/04/24 09:36:10;;;;;;;2.10;0.80;;;;;;;8.46;32.28;99672.56;1719000;83;21202;-65
2021/04/24 09:38:44;;;;;;;5.62;1.07;;;;;;;8.48;33.09;99674.45;1719168;83;21013;-64
2021/04/24 09:41:27;;;;;;;3.55;0.90;;;;;;;8.83;33.79;99664.79;1718515;83;21009;-65
2021/04/24 09:44:14;;;;;;;1.20;0.82;;;;;;;9.51;32.17;99668.67;1729230;83;21656;-65
2021/04/24 09:46:50;;;;;;;2.27;0.68;;;;;;;10.04;29.50;99652.97;1729204;83;20978;-65
2021/04/24 09:49:31;;;;;;;2.40;0.78;;;;;;;10.45;28.88;99634.98;1729119;82;21252;-65
2021/04/24 09:52:06;;;;;;;3.12;1.20;;;;;;;10.77;27.68;99650.37;1729079;83;21129;-63
2021/04/24 09:54:37;;;;;;;5.08;1.15;;;;;;;10.70;29.69;99643.95;1729198;83;21141;-63
2021/04/24 09:57:08;;;;;;;1.95;0.55;;;;;;;10.31;29.90;99650.73;1729201;83;21110;-67
2021/04/24 10:00:00;;;;;;;2.30;0.80;;;;;;;9.87;29.53;99637.98;1729054;82;21418;-63
2021/04/24 10:02:35;;;;;;;3.08;1.40;;;;;;;9.66;29.47;99661.50;1729021;83;21195;-64
2021/04/24 10:05:17;;;;;;;3.47;1.32;;;;;;;9.25;29.78;99660.96;1729057;81;21601;-64
2021/04/24 10:07:49;;;;;;;1.77;1.00;;;;;;;8.83;30.79;99662.05;1729404;83;21161;-63
2021/04/24 10:10:33;;;;;;;;;;;;;;;8.41;29.44;99664.44;1731691;83;21167;-63
2021/04/24 10:13:07;;;;;;;2.60;0.75;;;;;;;8.00;30.04;99657.96;1694578;83;20299;-63
2021/04/24 10:15:43;;;;;;;3.75;1.62;;;;;;;7.63;30.78;99667.75;1722449;83;21222;-64
2021/04/24 10:18:13;;;;;;;7.17;2.62;;;;;;;7.51;32.51;99666.03;1728919;83;21158;-65
2021/04/24 10:20:44;;;;;;;2.62;1.02;;;;;;;7.78;34.67;99662.64;1729302;83;21593;-64
2021/04/24 10:23:13;;;;;;;2.08;1.20;;;;;;;8.43;33.48;99651.27;1729172;81;21019;-64
2021/04/24 10:25:41;;;;;;;2.45;1.00;;;;;;;9.05;32.42;99666.05;1729185;83;21189;-65
2021/04/24 10:28:09;;;;;;;3.67;0.95;;;;;;;9.68;28.83;99659.27;1728877;81;22225;-64
2021/04/24 10:30:39;;;;;;;3.02;0.65;;;;;;;10.11;27.80;99653.36;1716053;83;21940;-64
2021/04/24 10:33:07;;;;;;;13.30;1.50;;;;;;;10.49;27.29;99644.21;1700012;84;21355;-64
2021/04/24 10:35:34;;;;;;;2.80;1.07;;;;;;;10.39;29.20;99668.63;1699946;84;21121;-64
2021/04/24 10:38:03;;;;;;;2.55;1.37;;;;;;;10.01;29.57;99661.81;1714085;83;21135;-63
2021/04/24 10:40:30;;;;;;;5.65;2.27;;;;;;;9.47;30.43;99675.88;1724728;81;21379;-63
2021/04/24 10:42:59;;;;;;;13.85;2.60;;;;;;;8.98;31.76;99682.87;1722915;83;21064;-63
2021/04/24 10:45:29;;;;;;;25.72;3.30;;;;;;;8.52;31.30;99680.13;1700514;83;21174;-64
2021/04/24 10:47:58;;;;;;;3.75;1.10;;;;;;;8.19;33.52;99705.23;1674619;84;21185;-64
2021/04/24 10:50:46;;;;;;;4.90;1.20;;;;;;;7.77;36.21;99722.50;1702085;83;21147;-64
2021/04/24 10:53:23;;;;;;;4.05;1.32;;;;;;;7.30;36.35;99721.44;1702884;83;22295;-63
2021/04/24 10:55:53;;;;;;;4.12;0.93;;;;;;;6.86;39.16;99718.35;1696560;84;21053;-64
2021/04/24 10:58:26;;;;;;;1.70;1.10;;;;;;;6.70;40.01;99710.03;1696399;83;21184;-63
2021/04/24 11:00:58;;;;;;;2.58;0.75;;;;;;;6.67;38.40;99707.06;1696473;83;21133;-64
2021/04/24 11:03:41;;;;;;;1.50;0.60;;;;;;;6.93;37.87;99695.60;1696331;83;21606;-65
2021/04/24 11:06:22;;;;;;;2.95;1.00;;;;;;;7.23;36.50;99704.58;1696607;84;22110;-65
2021/04/24 11:09:11;;;;;;;1.50;0.80;;;;;;;7.72;37.19;99696.05;1696660;84;21615;-64
2021/04/24 11:11:39;;;;;;;1.15;0.70;;;;;;;8.13;34.55;99693.55;1696279;84;21022;-64
2021/04/24 11:14:06;;;;;;;1.12;0.60;;;;;;;8.35;33.75;99695.72;1671069;84;21497;-65
2021/04/24 11:16:34;;;;;;;2.75;0.70;;;;;;;8.26;34.03;99695.55;1670782;84;21135;-64
2021/04/24 11:19:03;;;;;;;2.55;1.00;;;;;;;8.13;34.83;99691.38;1696388;83;21214;-64
2021/04/24 11:21:32;;;;;;;4.37;1.22;;;;;;;8.00;34.51;99696.23;1696713;84;21575;-64
2021/04/24 11:24:13;;;;;;;4.92;1.60;;;;;;;7.81;35.55;99707.96;1696461;84;21182;-64
2021/04/24 11:26:46;;;;;;;2.72;1.05;;;;;;;7.71;36.98;99714.92;1696546;84;21578;-65
2021/04/24 11:29:35;;;;;;;7.47;0.93;;;;;;;7.57;36.23;99726.30;1696495;84;21187;-64
2021/04/24 11:32:10;;;;;;;2.25;1.20;;;;;;;7.17;39.23;99720.20;1692910;84;21204;-65
2021/04/24 11:34:45;;;;;;;3.77;1.42;;;;;;;6.84;44.08;99716.45;1666816;84;21680;-65
2021/04/24 11:37:23;;;;;;;4.90;1.62;;;;;;;6.73;42.97;99706.73;1696076;84;21069;-65
2021/04/24 11:40:27;;;;;;;1.45;0.70;;;;;;;6.70;43.10;99710.03;1696296;84;21160;-65
2021/04/24 11:43:08;;;;;;;10.57;0.83;;;;;;;6.79;42.66;99708.31;1696715;84;21160;-64
2021/04/24 11:45:51;;;;;;;2.30;0.72;;;;;;;7.07;42.36;99709.94;1696547;84;22285;-65
2021/04/24 11:51:44;;;;;;;1.95;0.78;;;;;;;8.46;39.28;99707.31;1874758;76;22892;-63
2021/04/24 11:54:33;;;;;;;1.95;0.60;;;;;;;8.91;38.30;99706.53;1829873;78;21029;-65
2021/04/24 11:57:02;;;;;;;6.40;0.60;;;;;;;9.32;35.89;99711.23;1829906;78;21170;-65
2021/04/24 11:59:33;;;;;;;1.67;0.90;;;;;;;9.62;35.91;99695.31;1829529;78;21005;-65